Time;durP1;ratioP1;P1;durP2;ratioP2;P2;SDS_P1;SDS_P2;PMS_P1;PMS_P2;Temp;Humidity;BMP_temperature;BMP_pressure;BME280_temperature;BME280_humidity;BME280_pressure;Samples;Min_cycle;Max_cycle;Signal;HPM_P1;HPM_P2
2023/04/03 00:00:38;;;;;;;10.52;1.67;;;-1.90;91.10;;;;;;4986420;28;20791;-69
2023/04/03 00:03:05;;;;;;;8.10;1.77;;;-1.90;91.40;;;;;;4985301;28;20058;-71
2023/04/03 00:05:33;;;;;;;6.75;1.70;;;-1.90;91.40;;;;;;4988914;28;20499;-70
2023/04/03 00:08:01;;;;;;;17.35;1.77;;;-2.00;91.30;;;;;;4982720;28;20057;-70
2023/04/03 00:10:28;;;;;;;11.07;1.45;;;-1.90;92.10;;;;;;4989752;28;20091;-70
2023/04/03 00:12:55;;;;;;;5.65;1.27;;;-2.00;91.80;;;;;;4984887;28;20051;-70
2023/04/03 00:15:22;;;;;;;5.38;1.95;;;-2.00;91.30;;;;;;4982969;28;20495;-70
2023/04/03 00:17:49;;;;;;;9.75;1.67;;;-2.00;91.40;;;;;;4985573;28;20133;-70
2023/04/03 00:20:16;;;;;;;9.35;1.85;;;-2.00;91.80;;;;;;4988041;28;20074;-70
2023/04/03 00:22:43;;;;;;;4.30;1.60;;;-2.00;91.90;;;;;;4984090;28;20050;-70
2023/04/03 00:25:10;;;;;;;5.60;2.22;;;-2.10;92.00;;;;;;4981663;28;20046;-70
2023/04/03 00:27:39;;;;;;;5.43;1.77;;;-2.10;91.90;;;;;;4984343;28;20058;-71
2023/04/03 00:30:08;;;;;;;13.65;1.77;;;-2.20;92.10;;;;;;4970736;28;20042;-71
2023/04/03 00:32:35;;;;;;;3.40;1.30;;;-2.20;92.50;;;;;;4998445;28;20050;-71
2023/04/03 00:35:02;;;;;;;11.40;2.22;;;-2.20;92.90;;;;;;4982632;28;20149;-71
2023/04/03 00:37:30;;;;;;;4.25;1.30;;;-2.30;92.90;;;;;;4974229;28;20054;-71
2023/04/03 00:39:57;;;;;;;10.70;2.00;;;-2.30;93.10;;;;;;4984461;28;20052;-71
2023/04/03 00:42:24;;;;;;;8.05;1.23;;;-2.40;93.60;;;;;;5000109;28;20058;-71
2023/04/03 00:44:57;;;;;;;9.02;1.65;;;-2.40;93.40;;;;;;4987883;28;20057;-71
2023/04/03 00:47:24;;;;;;;4.18;1.48;;;-2.40;93.40;;;;;;4984600;28;20061;-71
2023/04/03 00:53:10;;;;;;;9.15;1.52;;;-2.50;93.60;;;;;;4977431;28;20707;-71
2023/04/03 00:55:38;;;;;;;9.35;2.13;;;-2.50;93.80;;;;;;4963137;28;20046;-71
2023/04/03 00:58:07;;;;;;;17.00;1.98;;;-2.50;93.80;;;;;;4981884;28;20050;-71
2023/04/03 01:00:35;;;;;;;7.38;1.70;;;-2.50;93.80;;;;;;4980692;28;20392;-71
2023/04/03 01:03:03;;;;;;;8.95;2.13;;;-2.60;93.60;;;;;;4977383;28;20050;-71
2023/04/03 01:05:30;;;;;;;14.50;2.88;;;-2.60;93.90;;;;;;4977687;28;20062;-71
2023/04/03 01:07:57;;;;;;;11.93;2.03;;;-2.60;94.20;;;;;;4980203;28;20057;-71
2023/04/03 01:10:25;;;;;;;6.60;1.88;;;-2.60;94.30;;;;;;4982069;28;20138;-71
2023/04/03 01:12:52;;;;;;;9.15;1.55;;;-2.60;94.00;;;;;;4982963;28;20209;-71
2023/04/03 01:15:25;;;;;;;14.40;1.77;;;-2.70;94.20;;;;;;4980794;28;20061;-71
2023/04/03 01:17:53;;;;;;;5.57;1.90;;;-2.70;94.40;;;;;;4986333;28;20054;-71
2023/04/03 01:20:30;;;;;;;9.98;1.85;;;-2.70;94.20;;;;;;4982302;28;20855;-71
2023/04/03 01:23:09;;;;;;;5.43;1.88;;;-2.70;94.20;;;;;;4978005;28;20046;-71
2023/04/03 01:25:47;;;;;;;11.48;2.25;;;-2.70;94.50;;;;;;4981322;28;20161;-71
2023/04/03 01:28:22;;;;;;;6.43;1.13;;;-2.70;95.30;;;;;;4979446;28;20061;-71
2023/04/03 01:31:12;;;;;;;3.42;1.10;;;-2.70;95.20;;;;;;4975794;28;20909;-71
2023/04/03 01:33:39;;;;;;;5.07;1.27;;;-2.80;95.50;;;;;;4984033;28;20047;-71
2023/04/03 01:36:07;;;;;;;9.73;1.38;;;-2.80;95.60;;;;;;4978014;28;20069;-71
2023/04/03 01:38:34;;;;;;;6.47;1.38;;;-2.80;95.70;;;;;;4960508;28;20073;-71
2023/04/03 01:41:01;;;;;;;9.55;1.95;;;-2.90;95.80;;;;;;4976930;28;20062;-71
2023/04/03 01:43:28;;;;;;;3.80;1.23;;;-2.90;95.70;;;;;;4978235;28;20497;-71
2023/04/03 01:45:55;;;;;;;3.10;1.25;;;-2.90;95.70;;;;;;4977600;28;20081;-71
2023/04/03 01:48:22;;;;;;;5.78;1.95;;;-2.90;96.10;;;;;;4961199;28;20058;-71
2023/04/03 01:50:49;;;;;;;8.13;1.65;;;-2.90;96.00;;;;;;4988831;28;20062;-71
2023/04/03 01:53:16;;;;;;;8.15;1.67;;;-2.90;95.70;;;;;;4992808;28;20038;-71
2023/04/03 01:55:42;;;;;;;8.18;2.22;;;-2.90;95.70;;;;;;5005016;28;20060;-71
2023/04/03 01:58:09;;;;;;;6.68;1.95;;;-2.90;96.00;;;;;;5000982;28;20383;-71
2023/04/03 02:03:26;;;;;;;10.75;1.60;;;-2.70;95.60;;;;;;4999455;26;20167;-70
2023/04/03 02:05:53;;;;;;;5.75;1.50;;;-2.70;95.20;;;;;;5023809;28;20041;-70
2023/04/03 02:08:19;;;;;;;5.47;1.60;;;-2.80;95.00;;;;;;5022513;28;20049;-70
2023/04/03 02:10:50;;;;;;;5.70;1.70;;;-2.80;95.10;;;;;;5022828;28;20057;-70
2023/04/03 02:13:18;;;;;;;6.97;1.92;;;-2.80;95.40;;;;;;5005596;28;20049;-70
2023/04/03 02:15:45;;;;;;;6.97;1.55;;;-2.90;95.50;;;;;;5007870;28;20067;-70
2023/04/03 02:18:13;;;;;;;9.65;2.20;;;-2.90;96.50;;;;;;5002898;28;20056;-70
2023/04/03 02:20:40;;;;;;;8.07;2.00;;;-3.00;96.80;;;;;;5021100;28;20064;-70
2023/04/03 02:23:06;;;;;;;7.53;2.30;;;-3.00;97.00;;;;;;5021355;28;20046;-69
2023/04/03 02:25:34;;;;;;;6.40;1.52;;;-3.00;97.50;;;;;;5021586;28;20049;-70
2023/04/03 02:28:04;;;;;;;8.68;1.30;;;-3.10;97.20;;;;;;5020784;28;20049;-70
2023/04/03 02:30:31;;;;;;;5.78;2.13;;;-3.10;97.40;;;;;;5019815;28;20053;-70
2023/04/03 02:32:58;;;;;;;5.95;1.35;;;-3.10;97.60;;;;;;5001783;28;20049;-70
2023/04/03 02:35:24;;;;;;;9.43;1.95;;;-3.20;97.70;;;;;;5019318;28;20061;-70
2023/04/03 02:37:51;;;;;;;4.13;1.92;;;-3.20;97.50;;;;;;5019981;28;20784;-70
2023/04/03 02:40:18;;;;;;;12.38;1.77;;;-3.30;97.70;;;;;;5020435;28;20837;-70
2023/04/03 02:42:45;;;;;;;6.63;1.92;;;-3.30;97.70;;;;;;5004883;28;20081;-70
2023/04/03 02:45:12;;;;;;;4.18;1.65;;;-3.30;97.70;;;;;;5019958;28;20057;-70
2023/04/03 02:47:54;;;;;;;4.63;1.70;;;-3.30;97.70;;;;;;5002573;28;20061;-70
2023/04/03 02:50:21;;;;;;;4.43;1.70;;;-3.30;97.70;;;;;;5016440;28;20053;-71
2023/04/03 02:52:48;;;;;;;5.80;1.50;;;-3.40;97.60;;;;;;5018664;28;20056;-71
2023/04/03 02:58:55;;;;;;;8.48;1.70;;;-3.50;97.10;;;;;;5028793;22;20056;-71
2023/04/03 03:01:22;;;;;;;15.85;2.53;;;-3.40;97.60;;;;;;4999075;28;20080;-71
2023/04/03 03:03:49;;;;;;;9.05;2.05;;;-3.40;97.50;;;;;;5019200;28;20103;-70
2023/04/03 03:06:17;;;;;;;6.65;1.50;;;-3.40;97.80;;;;;;5024172;28;20041;-71
2023/04/03 03:11:13;;;;;;;12.45;2.33;;;-3.50;97.70;;;;;;4961202;28;20062;-71
2023/04/03 03:13:39;;;;;;;8.85;1.65;;;-3.50;97.70;;;;;;4961968;28;20058;-70
2023/04/03 03:16:07;;;;;;;7.40;2.17;;;-3.50;98.10;;;;;;4966158;28;20090;-71
2023/04/03 03:18:35;;;;;;;11.98;1.95;;;-3.50;98.00;;;;;;4960974;28;20050;-71
2023/04/03 03:21:03;;;;;;;6.97;1.65;;;-3.50;98.20;;;;;;4960720;28;20050;-71
2023/04/03 03:23:32;;;;;;;7.30;1.88;;;-3.50;98.40;;;;;;4975000;28;20058;-71
2023/04/03 03:26:01;;;;;;;6.78;1.75;;;-3.60;98.30;;;;;;4961485;28;20453;-71
2023/04/03 03:28:28;;;;;;;5.45;1.40;;;-3.60;98.30;;;;;;4965644;28;20086;-71
2023/04/03 03:30:56;;;;;;;4.95;1.80;;;-3.60;98.30;;;;;;4958629;28;20059;-71
2023/04/03 03:33:23;;;;;;;7.15;1.45;;;-3.60;98.80;;;;;;4961668;28;20057;-71
2023/04/03 03:35:51;;;;;;;7.47;2.05;;;-3.60;98.80;;;;;;4963885;28;20051;-71
2023/04/03 03:38:17;;;;;;;17.23;2.95;;;-3.70;98.80;;;;;;4968028;28;20054;-71
2023/04/03 03:40:44;;;;;;;8.93;2.03;;;-3.70;99.10;;;;;;4967975;28;20055;-71
2023/04/03 03:43:11;;;;;;;8.15;1.27;;;-3.70;99.20;;;;;;4965993;28;20051;-71
2023/04/03 03:45:38;;;;;;;8.05;2.38;;;-3.70;99.20;;;;;;4963675;28;20057;-71
2023/04/03 03:48:05;;;;;;;6.30;2.15;;;-3.70;99.20;;;;;;4969901;28;20125;-71
2023/04/03 03:50:32;;;;;;;5.53;1.65;;;-3.70;99.00;;;;;;4954525;28;20142;-71
2023/04/03 03:52:59;;;;;;;7.78;1.83;;;-3.70;99.10;;;;;;4968534;28;20049;-71
2023/04/03 03:55:26;;;;;;;5.53;1.27;;;-3.70;99.30;;;;;;4969474;28;20276;-71
2023/04/03 03:57:53;;;;;;;4.88;1.45;;;-3.70;99.40;;;;;;4969387;28;20065;-71
2023/04/03 04:00:20;;;;;;;5.20;1.67;;;-3.80;99.40;;;;;;4967999;28;20050;-71
2023/04/03 04:02:47;;;;;;;12.68;1.60;;;-3.80;99.40;;;;;;4959747;28;20054;-71
2023/04/03 04:05:14;;;;;;;12.02;2.08;;;-3.80;99.50;;;;;;4953694;28;20046;-71
2023/04/03 04:07:41;;;;;;;9.50;1.80;;;-3.70;99.80;;;;;;4964886;28;20054;-71
2023/04/03 04:10:08;;;;;;;15.23;2.08;;;-3.70;99.60;;;;;;4971578;28;20054;-71
2023/04/03 04:12:35;;;;;;;15.52;1.67;;;-3.70;99.80;;;;;;4968058;28;20057;-71
2023/04/03 04:15:03;;;;;;;6.57;2.78;;;-3.70;99.70;;;;;;4991122;28;20133;-71
2023/04/03 04:17:29;;;;;;;12.55;1.75;;;-3.70;99.80;;;;;;4972813;28;20053;-71
2023/04/03 04:19:56;;;;;;;5.93;1.98;;;-3.70;99.90;;;;;;4988399;28;20344;-71
2023/04/03 04:22:23;;;;;;;48.75;2.95;;;-3.80;99.70;;;;;;4980971;28;20054;-71
2023/04/03 04:24:50;;;;;;;18.48;3.47;;;-3.80;99.70;;;;;;4980252;28;20048;-71
2023/04/03 04:27:17;;;;;;;13.98;3.05;;;-3.80;100.00;;;;;;4984965;28;20050;-71
2023/04/03 04:29:44;;;;;;;16.17;2.83;;;-3.70;100.00;;;;;;4972745;28;20050;-71
2023/04/03 04:32:10;;;;;;;11.30;3.63;;;-3.70;100.00;;;;;;4980689;28;20050;-71
2023/04/03 04:34:37;;;;;;;18.42;3.60;;;-3.70;100.00;;;;;;4981917;28;20590;-71
2023/04/03 04:37:04;;;;;;;11.02;3.05;;;-3.70;100.00;;;;;;4967181;28;20180;-71
2023/04/03 04:39:31;;;;;;;10.27;3.15;;;-3.70;100.00;;;;;;4984060;28;20060;-71
2023/04/03 04:41:58;;;;;;;18.77;3.88;;;-3.70;100.00;;;;;;4983450;28;20491;-71
2023/04/03 04:44:25;;;;;;;7.65;3.10;;;-3.60;100.00;;;;;;4986980;28;20585;-71
2023/04/03 04:46:51;;;;;;;11.77;3.75;;;-3.60;100.00;;;;;;4982560;28;20062;-71
2023/04/03 04:49:18;;;;;;;19.70;4.38;;;-3.70;100.00;;;;;;4983596;28;20061;-71
2023/04/03 04:51:46;;;;;;;11.77;3.67;;;-3.60;100.00;;;;;;4984617;28;20057;-71
2023/04/03 04:54:18;;;;;;;19.15;2.70;;;-3.60;100.00;;;;;;4968407;28;20118;-71
2023/04/03 04:56:46;;;;;;;14.63;4.35;;;-3.60;100.00;;;;;;4983775;28;20056;-72
2023/04/03 04:59:14;;;;;;;14.77;3.13;;;-3.50;100.00;;;;;;4989369;28;20053;-73
2023/04/03 05:01:42;;;;;;;11.98;2.85;;;-3.60;100.00;;;;;;4978944;28;20672;-75
2023/04/03 05:04:09;;;;;;;13.48;3.05;;;-3.50;100.00;;;;;;4978837;28;20093;-74
2023/04/03 05:06:37;;;;;;;17.02;2.45;;;-3.60;100.00;;;;;;4986492;28;20046;-73
2023/04/03 05:09:05;;;;;;;32.00;3.55;;;-3.60;100.00;;;;;;4971205;28;20050;-75
2023/04/03 05:11:32;;;;;;;27.92;6.80;;;-3.60;100.00;;;;;;4987430;28;20051;-71
2023/04/03 05:13:59;;;;;;;20.95;6.40;;;-3.50;100.00;;;;;;4985356;28;20051;-71
2023/04/03 05:16:26;;;;;;;20.23;5.28;;;-3.50;100.00;;;;;;4986948;28;20038;-71
2023/04/03 05:18:53;;;;;;;25.90;10.05;;;-3.50;100.00;;;;;;4989490;28;20070;-71
2023/04/03 05:21:21;;;;;;;28.10;7.60;;;-3.50;99.80;;;;;;4986471;28;20879;-71
2023/04/03 05:23:48;;;;;;;17.38;4.80;;;-3.40;99.80;;;;;;4978322;28;20058;-71
2023/04/03 05:26:15;;;;;;;14.18;5.03;;;-3.40;99.80;;;;;;4981101;28;20058;-71
2023/04/03 05:29:38;;;;;;;13.70;4.55;;;-3.30;99.50;;;;;;4991302;28;20161;-70
2023/04/03 05:32:04;;;;;;;9.63;3.03;;;-3.30;99.40;;;;;;4981507;28;20379;-74
2023/04/03 05:34:32;;;;;;;13.90;2.63;;;-3.20;99.50;;;;;;4979334;28;20054;-74
2023/04/03 05:36:59;;;;;;;15.10;3.13;;;-3.10;99.40;;;;;;4987183;28;20049;-74
2023/04/03 05:39:25;;;;;;;15.55;2.75;;;-3.00;99.20;;;;;;4970562;28;20054;-74
2023/04/03 05:41:52;;;;;;;25.20;5.25;;;-2.90;99.00;;;;;;4967625;28;20066;-74
2023/04/03 05:44:19;;;;;;;23.75;5.78;;;-2.90;98.90;;;;;;4973721;28;20050;-74
2023/04/03 05:46:46;;;;;;;28.05;6.50;;;-2.80;98.70;;;;;;4986209;28;20064;-74
2023/04/03 05:49:13;;;;;;;47.03;10.38;;;-2.70;98.70;;;;;;4995689;28;20050;-74
2023/04/03 05:51:40;;;;;;;63.30;15.65;;;-2.60;98.60;;;;;;4988483;28;20415;-74
2023/04/03 05:54:16;;;;;;;44.47;12.90;;;-2.60;98.50;;;;;;4990522;28;20137;-74
2023/04/03 05:56:43;;;;;;;38.65;10.93;;;-2.40;98.00;;;;;;4987796;28;20085;-74
2023/04/03 05:59:10;;;;;;;25.42;7.40;;;-2.30;97.70;;;;;;4982748;28;20038;-73
2023/04/03 06:01:37;;;;;;;15.77;5.38;;;-2.20;97.70;;;;;;4985596;28;20569;-74
2023/04/03 06:04:04;;;;;;;38.83;5.15;;;-2.10;97.50;;;;;;4969960;28;20062;-74
2023/04/03 06:06:45;;;;;;;23.95;5.38;;;-2.00;97.20;;;;;;4986140;28;20132;-74
2023/04/03 06:09:12;;;;;;;18.58;2.78;;;-1.80;96.40;;;;;;4986271;28;20514;-74
2023/04/03 06:11:39;;;;;;;7.55;1.70;;;-1.70;96.30;;;;;;4989190;28;20065;-74
2023/04/03 06:14:06;;;;;;;11.38;1.60;;;-1.50;95.80;;;;;;4988999;28;20042;-73
2023/04/03 06:16:33;;;;;;;6.45;1.15;;;-1.30;95.40;;;;;;4985966;28;20050;-73
2023/04/03 06:19:02;;;;;;;6.75;1.55;;;-1.20;94.50;;;;;;4986436;28;20447;-74
2023/04/03 06:21:30;;;;;;;6.20;1.20;;;-1.00;94.10;;;;;;4985919;28;20072;-74
2023/04/03 06:23:56;;;;;;;13.27;2.50;;;-0.80;93.50;;;;;;4985935;28;20687;-74
2023/04/03 06:26:23;;;;;;;10.75;1.60;;;-0.60;93.10;;;;;;4985115;28;20086;-74
2023/04/03 06:28:50;;;;;;;2.88;1.15;;;-0.30;93.70;;;;;;4993699;28;20054;-74
2023/04/03 06:31:17;;;;;;;8.25;1.65;;;0.20;91.90;;;;;;4987068;28;20046;-74
2023/04/03 06:33:44;;;;;;;14.50;1.83;;;0.70;89.70;;;;;;4987754;28;20054;-75
2023/04/03 06:36:12;;;;;;;14.23;1.63;;;1.30;87.80;;;;;;4983960;28;20080;-74
2023/04/03 06:38:38;;;;;;;6.78;1.00;;;1.70;85.50;;;;;;4991851;28;20132;-74
2023/04/03 06:41:05;;;;;;;16.42;2.08;;;2.00;82.00;;;;;;4984906;28;20585;-74
2023/04/03 06:43:32;;;;;;;7.75;1.85;;;2.50;81.20;;;;;;4998442;28;20173;-74
2023/04/03 06:46:00;;;;;;;8.70;1.80;;;3.10;79.70;;;;;;4985292;28;20142;-74
2023/04/03 06:48:27;;;;;;;5.15;1.60;;;3.80;77.00;;;;;;4992901;28;20132;-74
2023/04/03 06:50:54;;;;;;;12.23;1.65;;;4.30;74.40;;;;;;4976071;28;20468;-74
2023/04/03 06:53:21;;;;;;;5.88;1.08;;;4.90;72.20;;;;;;4986906;28;20045;-74
2023/04/03 06:55:48;;;;;;;6.85;1.67;;;5.40;70.30;;;;;;4985362;28;20404;-74
2023/04/03 06:58:17;;;;;;;5.43;1.70;;;5.90;68.50;;;;;;4995934;28;20474;-74
2023/04/03 07:00:45;;;;;;;1.80;1.00;;;6.20;66.90;;;;;;4991060;28;20046;-74
2023/04/03 07:03:11;;;;;;;6.90;1.42;;;6.80;65.20;;;;;;4996073;28;20049;-74
2023/04/03 07:05:38;;;;;;;8.95;1.25;;;7.20;63.60;;;;;;4991092;28;20061;-75
2023/04/03 07:08:06;;;;;;;7.57;2.38;;;7.50;61.80;;;;;;4991247;28;20105;-74
2023/04/03 07:10:32;;;;;;;7.07;2.17;;;7.90;61.20;;;;;;4987074;28;20083;-74
2023/04/03 07:13:01;;;;;;;6.60;1.65;;;8.10;59.60;;;;;;4973546;28;20054;-74
2023/04/03 07:15:28;;;;;;;4.47;1.10;;;8.30;60.00;;;;;;4986311;28;20046;-75
2023/04/03 07:17:55;;;;;;;10.02;2.30;;;8.80;59.10;;;;;;4992167;28;20059;-74
2023/04/03 07:20:22;;;;;;;3.92;1.13;;;9.20;56.80;;;;;;4993598;28;20086;-75
2023/04/03 07:22:49;;;;;;;3.78;0.95;;;9.20;56.10;;;;;;4991553;28;20054;-74
2023/04/03 07:25:16;;;;;;;4.00;0.80;;;9.30;56.10;;;;;;4990672;28;20495;-74
2023/04/03 07:27:43;;;;;;;4.05;0.85;;;10.00;54.60;;;;;;4986236;28;20440;-75
2023/04/03 07:30:10;;;;;;;5.03;0.80;;;10.10;54.70;;;;;;4988378;28;20047;-74
2023/04/03 07:32:37;;;;;;;6.15;0.90;;;9.80;52.80;;;;;;4973590;28;20065;-74
2023/04/03 07:35:04;;;;;;;4.68;0.85;;;9.90;55.00;;;;;;4985125;28;20051;-75
2023/04/03 07:37:32;;;;;;;6.13;1.27;;;10.00;53.90;;;;;;4977506;28;20057;-76
2023/04/03 07:40:01;;;;;;;5.10;0.70;;;10.20;53.10;;;;;;4990285;28;20157;-75
2023/04/03 07:42:28;;;;;;;12.52;1.10;;;9.50;55.10;;;;;;4993322;28;20074;-75
2023/04/03 07:44:55;;;;;;;3.15;1.00;;;10.40;53.60;;;;;;4993160;28;20434;-75
2023/04/03 07:47:22;;;;;;;5.03;0.93;;;10.00;49.50;;;;;;4979226;28;20053;-75
2023/04/03 07:49:49;;;;;;;3.92;0.60;;;9.60;50.70;;;;;;4992730;28;20050;-75
2023/04/03 07:52:15;;;;;;;4.53;1.00;;;9.60;55.10;;;;;;4988663;28;20408;-75
2023/04/03 07:54:42;;;;;;;4.07;0.75;;;10.10;53.80;;;;;;4975382;28;20403;-75
2023/04/03 07:57:10;;;;;;;9.43;0.90;;;10.50;52.40;;;;;;4989736;28;20097;-74
2023/04/03 07:59:37;;;;;;;4.75;1.05;;;11.00;52.80;;;;;;4995786;28;20049;-76
2023/04/03 08:02:04;;;;;;;5.85;1.48;;;10.80;50.80;;;;;;4991173;28;20046;-74
2023/04/03 08:04:31;;;;;;;4.68;0.80;;;11.10;52.30;;;;;;4986530;28;20106;-75
2023/04/03 08:06:59;;;;;;;5.93;1.00;;;11.70;49.90;;;;;;4990007;28;20877;-75
2023/04/03 08:09:25;;;;;;;4.00;0.90;;;11.80;49.10;;;;;;4995690;28;20116;-78
2023/04/03 08:11:53;;;;;;;6.18;1.00;;;12.10;48.50;;;;;;4995939;28;20053;-76
2023/04/03 08:14:21;;;;;;;8.02;0.85;;;12.30;47.60;;;;;;4977876;28;20189;-74
2023/04/03 08:16:48;;;;;;;2.83;0.55;;;12.20;47.50;;;;;;4971337;28;20109;-73
2023/04/03 08:19:17;;;;;;;3.33;0.73;;;12.20;48.70;;;;;;4976435;28;20053;-74
2023/04/03 08:21:52;;;;;;;2.55;0.73;;;12.00;44.30;;;;;;4973801;28;20066;-73
2023/04/03 08:24:19;;;;;;;79.95;9.30;;;11.70;47.40;;;;;;4991391;28;20058;-73
2023/04/03 08:26:46;;;;;;;5.40;0.88;;;11.80;49.10;;;;;;4989199;28;20426;-74
2023/04/03 08:29:13;;;;;;;4.28;0.70;;;12.30;48.00;;;;;;4996344;28;20054;-74
2023/04/03 08:31:40;;;;;;;1.92;0.68;;;11.70;48.50;;;;;;4992641;28;20061;-74
2023/04/03 08:34:06;;;;;;;6.53;1.13;;;10.90;45.90;;;;;;4996166;28;20048;-74
2023/04/03 08:36:33;;;;;;;5.78;1.77;;;9.70;49.50;;;;;;4996305;28;20375;-74
2023/04/03 08:39:00;;;;;;;3.50;1.60;;;9.50;48.90;;;;;;4987737;28;20054;-74
2023/04/03 08:41:39;;;;;;;3.60;0.88;;;8.90;49.50;;;;;;4987513;28;20058;-74
2023/04/03 08:44:25;;;;;;;2.10;0.60;;;9.10;49.40;;;;;;4979931;28;20053;-74
2023/04/03 08:47:18;;;;;;;3.53;0.80;;;9.00;54.00;;;;;;4995262;28;20490;-74
2023/04/03 08:49:51;;;;;;;4.95;0.90;;;9.10;48.40;;;;;;4990548;28;20061;-74
2023/04/03 08:52:39;;;;;;;2.25;0.70;;;8.20;50.70;;;;;;4994175;28;20688;-74
2023/04/03 08:55:30;;;;;;;4.75;0.90;;;7.80;53.30;;;;;;4988195;28;20041;-73
2023/04/03 08:58:04;;;;;;;3.58;1.05;;;7.60;53.00;;;;;;4989696;28;20050;-72
2023/04/03 09:00:45;;;;;;;8.63;1.15;;;7.00;53.50;;;;;;4980651;28;20342;-73
2023/04/03 09:03:14;;;;;;;3.15;0.75;;;7.30;53.90;;;;;;4981405;28;20053;-73
2023/04/03 09:06:03;;;;;;;5.90;1.15;;;6.80;59.20;;;;;;4989548;28;20051;-73
2023/04/03 09:08:35;;;;;;;6.65;1.00;;;6.70;57.00;;;;;;4991546;28;20058;-72
2023/04/03 09:11:24;;;;;;;4.70;1.15;;;7.10;54.10;;;;;;4987423;28;20077;-72
2023/04/03 09:14:02;;;;;;;4.28;0.93;;;8.10;52.20;;;;;;4992962;28;20057;-74
2023/04/03 09:16:47;;;;;;;4.97;0.98;;;9.00;52.70;;;;;;4986730;28;20420;-73
2023/04/03 09:19:17;;;;;;;4.47;0.52;;;9.50;48.10;;;;;;4986224;28;20069;-73
2023/04/03 09:21:44;;;;;;;20.58;3.17;;;8.30;47.80;;;;;;4989235;28;20100;-72
2023/04/03 09:24:15;;;;;;;27.67;3.45;;;8.50;52.20;;;;;;4989221;28;20050;-73
2023/04/03 09:26:59;;;;;;;18.52;2.60;;;9.20;52.00;;;;;;4987080;28;20053;-73
2023/04/03 09:29:26;;;;;;;14.70;2.45;;;11.00;50.20;;;;;;4968314;28;20050;-73
2023/04/03 09:31:59;;;;;;;15.18;2.55;;;12.00;47.20;;;;;;4987464;28;20057;-73
2023/04/03 09:34:32;;;;;;;4.03;0.95;;;12.60;44.70;;;;;;4985686;28;20714;-72
2023/04/03 09:37:05;;;;;;;6.20;0.98;;;13.20;44.30;;;;;;4985235;28;20049;-73
2023/04/03 09:39:54;;;;;;;4.05;1.17;;;14.00;41.60;;;;;;5037793;22;20122;-73
2023/04/03 09:42:23;;;;;;;3.55;1.10;;;14.10;39.90;;;;;;5058928;28;20480;-73
2023/04/03 09:45:00;;;;;;;4.45;1.05;;;14.40;42.00;;;;;;5063645;28;20677;-72
2023/04/03 09:47:29;;;;;;;6.60;0.95;;;14.60;39.10;;;;;;5064213;28;20063;-73
2023/04/03 09:50:14;;;;;;;6.78;1.58;;;15.10;42.20;;;;;;5062663;28;20076;-72
2023/04/03 09:52:46;;;;;;;2.60;1.05;;;16.20;39.70;;;;;;5056683;28;20048;-72
2023/04/03 09:55:28;;;;;;;3.70;1.70;;;16.50;39.60;;;;;;5057937;28;20475;-72
2023/04/03 09:58:01;;;;;;;8.80;2.10;;;17.30;38.40;;;;;;5062321;28;20044;-72
2023/04/03 10:00:36;;;;;;;10.75;2.10;;;17.30;37.60;;;;;;5054224;28;20049;-72
2023/04/03 10:03:05;;;;;;;4.85;1.00;;;17.60;38.00;;;;;;5058448;28;20107;-73
2023/04/03 10:05:40;;;;;;;12.20;1.25;;;17.50;38.00;;;;;;5063143;28;20539;-74
2023/04/03 10:08:13;;;;;;;;;;;18.20;36.20;;;;;;5056695;28;20496;-73
2023/04/03 10:10:46;;;;;;;9.68;1.13;;;18.90;35.70;;;;;;5063697;28;19924;-72
2023/04/03 10:13:20;;;;;;;1.30;0.77;;;18.90;36.20;;;;;;5059284;28;20048;-73
2023/04/03 10:16:03;;;;;;;5.03;0.95;;;18.70;37.50;;;;;;5052826;28;20049;-72
2023/04/03 10:18:36;;;;;;;3.58;0.95;;;18.50;39.40;;;;;;5062792;28;20560;-73
2023/04/03 10:21:10;;;;;;;4.03;0.88;;;18.50;38.50;;;;;;5063522;28;20047;-74
2023/04/03 10:24:03;;;;;;;2.67;0.93;;;17.50;37.40;;;;;;5061579;28;20156;-73
2023/04/03 10:26:38;;;;;;;4.72;0.80;;;17.20;34.30;;;;;;5067907;22;20060;-70
2023/04/03 10:29:28;;;;;;;6.47;0.98;;;16.80;36.80;;;;;;5021492;28;20073;-71
2023/04/03 10:32:14;;;;;;;10.07;1.20;;;15.80;37.00;;;;;;5023000;28;20145;-72
2023/04/03 10:34:42;;;;;;;;;;;14.60;39.20;;;;;;5024452;28;20045;-71
2023/04/03 10:37:23;;;;;;;3.83;1.00;;;14.30;38.90;;;;;;5022541;28;19925;-71
2023/04/03 10:40:15;;;;;;;3.20;0.70;;;14.20;42.30;;;;;;5027009;28;20050;-71
2023/04/03 10:42:41;;;;;;;4.72;0.88;;;14.00;38.50;;;;;;5024985;28;20471;-71
2023/04/03 10:45:43;;;;;;;2.40;0.88;;;14.40;39.70;;;;;;5023890;28;20072;-72
2023/04/03 10:48:28;;;;;;;4.20;0.75;;;14.40;41.90;;;;;;5009050;28;20156;-71
2023/04/03 10:55:13;;;;;;;4.43;1.23;;;12.90;38.00;;;;;;5058208;28;20406;-72
2023/04/03 10:57:40;;;;;;;4.93;1.10;;;12.60;41.90;;;;;;5050491;28;20067;-72
2023/04/03 11:00:38;;;;;;;7.30;0.93;;;13.90;38.10;;;;;;5054948;22;20051;-70
2023/04/03 11:03:52;;;;;;;9.68;1.02;;;12.70;39.20;;;;;;5063626;28;20053;-71
2023/04/03 11:06:23;;;;;;;3.88;0.70;;;12.00;43.90;;;;;;5039557;28;20060;-71
2023/04/03 11:08:59;;;;;;;5.40;0.80;;;13.10;40.30;;;;;;5064036;28;20055;-69
2023/04/03 11:11:32;;;;;;;6.68;1.20;;;13.00;38.70;;;;;;5061967;28;20048;-69
2023/04/03 11:14:29;;;;;;;2.03;0.80;;;13.50;41.80;;;;;;5061876;28;20048;-70
2023/04/03 11:17:05;;;;;;;5.43;0.90;;;14.40;38.30;;;;;;5040820;28;20079;-71
2023/04/03 11:20:10;;;;;;;1.52;0.80;;;15.90;39.30;;;;;;5064918;28;20055;-70
2023/04/03 11:22:42;;;;;;;6.78;1.02;;;16.20;38.70;;;;;;5063130;28;20048;-70
2023/04/03 11:25:10;;;;;;;10.75;1.48;;;17.50;34.80;;;;;;5063919;28;20427;-70
2023/04/03 11:27:57;;;;;;;3.03;1.10;;;17.40;36.10;;;;;;5062215;28;20053;-70
2023/04/03 11:30:46;;;;;;;3.80;0.90;;;19.00;33.90;;;;;;5053866;28;20045;-70
2023/04/03 11:33:51;;;;;;;7.82;2.08;;;19.90;32.70;;;;;;5062659;28;20048;-71
2023/04/03 11:36:21;;;;;;;10.57;1.25;;;19.40;31.30;;;;;;5059947;28;20044;-71
2023/04/03 11:39:02;;;;;;;5.07;1.27;;;16.80;31.90;;;;;;5049342;28;20838;-72
2023/04/03 11:41:31;;;;;;;4.97;1.20;;;15.80;37.70;;;;;;5065706;28;20058;-72
2023/04/03 11:44:05;;;;;;;7.72;1.98;;;16.40;35.90;;;;;;5061418;28;20052;-71
2023/04/03 11:46:52;;;;;;;3.75;1.10;;;15.80;37.70;;;;;;5065294;28;20053;-71
2023/04/03 11:50:03;;;;;;;4.95;1.45;;;16.50;36.90;;;;;;5060308;28;20052;-72
2023/04/03 11:53:00;;;;;;;4.15;0.80;;;17.50;36.40;;;;;;5059219;28;20059;-71
2023/04/03 11:55:29;;;;;;;9.05;1.50;;;17.90;34.70;;;;;;5058991;28;20048;-72
2023/04/03 11:58:00;;;;;;;3.75;1.05;;;18.90;35.00;;;;;;5043299;28;20053;-72
2023/04/03 12:00:50;;;;;;;10.02;1.35;;;19.80;33.30;;;;;;5060506;28;20053;-72
2023/04/03 12:03:24;;;;;;;5.65;1.42;;;18.40;32.10;;;;;;5043591;28;20098;-72
2023/04/03 12:06:06;;;;;;;9.77;1.58;;;15.80;34.40;;;;;;5053313;28;20059;-71
2023/04/03 12:08:33;;;;;;;17.95;1.42;;;13.60;35.50;;;;;;5055786;28;20056;-71
2023/04/03 12:11:12;;;;;;;4.07;1.17;;;11.90;37.30;;;;;;5034329;28;20636;-71
2023/04/03 12:13:57;;;;;;;8.70;1.48;;;12.20;42.70;;;;;;5062606;28;20040;-72
2023/04/03 12:16:39;;;;;;;4.67;1.17;;;14.20;42.50;;;;;;5060494;28;20125;-71
2023/04/03 12:19:15;;;;;;;6.65;1.60;;;15.20;38.70;;;;;;5063075;28;20044;-71
2023/04/03 12:21:46;;;;;;;4.47;1.30;;;15.90;38.20;;;;;;5057321;28;20433;-72
2023/04/03 12:24:15;;;;;;;7.38;1.77;;;17.30;37.00;;;;;;5042839;28;20045;-72
2023/04/03 12:26:51;;;;;;;8.18;1.88;;;17.50;35.50;;;;;;5043221;28;20657;-72
2023/04/03 12:29:32;;;;;;;7.57;1.20;;;17.70;35.00;;;;;;5058393;28;20087;-72
2023/04/03 12:32:17;;;;;;;5.05;1.27;;;17.60;38.10;;;;;;5062513;28;20056;-72
2023/04/03 12:35:21;;;;;;;5.50;1.10;;;17.90;34.60;;;;;;5057278;28;20056;-72
2023/04/03 12:37:48;;;;;;;11.07;5.38;;;16.20;34.70;;;;;;5060224;28;20044;-72
2023/04/03 12:40:34;;;;;;;9.73;2.80;;;13.80;36.10;;;;;;5059361;28;20059;-72
2023/04/03 12:43:19;;;;;;;;;;;13.30;40.60;;;;;;5061225;28;20045;-71
2023/04/03 12:45:59;;;;;;;12.02;2.03;;;13.60;38.00;;;;;;5057615;28;19924;-71
2023/04/03 12:48:29;;;;;;;5.40;1.30;;;12.90;37.10;;;;;;5064900;28;20056;-71
2023/04/03 12:50:58;;;;;;;11.95;2.30;;;12.20;37.50;;;;;;5057172;28;20053;-71
2023/04/03 12:53:38;;;;;;;4.97;1.20;;;11.10;42.10;;;;;;5060058;28;20105;-71
2023/04/03 12:56:26;;;;;;;6.15;1.90;;;12.40;42.40;;;;;;5041028;28;20477;-71
2023/04/03 12:58:57;;;;;;;12.90;2.10;;;14.50;40.50;;;;;;5062643;28;20052;-72
2023/04/03 13:01:25;;;;;;;8.55;2.17;;;15.10;38.30;;;;;;5064730;28;20058;-72
2023/04/03 13:03:56;;;;;;;14.93;2.28;;;14.30;35.60;;;;;;5065356;28;20074;-71
2023/04/03 13:06:32;;;;;;;9.18;1.85;;;12.80;38.30;;;;;;5056185;28;20059;-71
2023/04/03 13:09:00;;;;;;;8.43;1.80;;;11.90;42.60;;;;;;5043987;28;20064;-71
2023/04/03 13:11:33;;;;;;;18.23;1.92;;;12.40;42.40;;;;;;5044594;28;20063;-71
2023/04/03 13:14:05;;;;;;;7.45;3.28;;;13.00;41.10;;;;;;5044055;28;20056;-72
2023/04/03 13:16:33;;;;;;;5.25;1.80;;;13.70;40.60;;;;;;5061589;28;20048;-72
2023/04/03 13:19:00;;;;;;;13.18;1.52;;;14.60;39.80;;;;;;5058153;28;20056;-72
2023/04/03 13:21:29;;;;;;;7.05;1.63;;;14.40;38.70;;;;;;5060204;28;20071;-72
2023/04/03 13:24:00;;;;;;;5.07;1.00;;;14.80;38.00;;;;;;5064970;28;20052;-72